Time,TemperatureF,DewpointF,PressureIn,WindDirection,WindDirectionDegrees,WindSpeedMPH,WindSpeedGustMPH,Humidity,HourlyPrecipIn,Conditions,Clouds,dailyrainin,SoftwareType,DateUTC
2013-03-01 00:02:00,33.0,30.0,-100.00,WNW,290,4.0,6.0,91,-99.99,,,-99.99,,2013-03-01 06:02:00,
2013-03-01 00:11:00,32.0,30.0,-100.00,WNW,285,6.0,8.0,91,-99.99,,,-99.99,,2013-03-01 06:11:00,
2013-03-01 00:22:00,32.0,30.0,-100.00,WNW,285,6.0,8.0,91,-99.99,,,-99.99,,2013-03-01 06:22:00,
2013-03-01 00:42:00,32.0,30.0,-100.00,WNW,300,6.0,9.0,91,-99.99,,,-99.99,,2013-03-01 06:42:00,
2013-03-01 00:53:00,32.0,30.0,-100.00,WNW,300,9.0,10.0,92,-99.99,,,-99.99,,2013-03-01 06:53:00,
2013-03-01 01:02:00,32.0,30.0,-100.00,WNW,300,9.0,10.0,92,-99.99,,,-99.99,,2013-03-01 07:02:00,
2013-03-01 01:11:00,32.0,30.0,-100.00,WNW,300,6.0,9.0,92,-99.99,,,-99.99,,2013-03-01 07:11:00,
2013-03-01 01:22:00,32.0,30.0,-100.00,WNW,295,6.0,8.0,92,-99.99,,,-99.99,,2013-03-01 07:22:00,
2013-03-01 01:32:00,32.0,30.0,-100.00,WNW,295,6.0,8.0,92,-99.99,,,-99.99,,2013-03-01 07:32:00,
2013-03-01 01:42:00,32.0,30.0,-100.00,NW,310,3.0,4.0,92,-99.99,,,-99.99,,2013-03-01 07:42:00,
2013-03-01 01:52:00,32.0,30.0,-100.00,WNW,290,6.0,9.0,92,-99.99,,,-99.99,,2013-03-01 07:52:00,
2013-03-01 02:02:00,32.0,30.0,-100.00,WNW,290,6.0,9.0,92,-99.99,,,-99.99,,2013-03-01 08:02:00,
2013-03-01 02:12:00,32.0,30.0,-100.00,WNW,295,6.0,8.0,92,-99.99,,,-99.99,,2013-03-01 08:12:00,
2013-03-01 02:22:00,32.0,30.0,-100.00,WNW,295,4.0,6.0,92,-99.99,,,-99.99,,2013-03-01 08:22:00,
2013-03-01 02:32:00,32.0,30.0,-100.00,WNW,295,4.0,6.0,92,-99.99,,,-99.99,,2013-03-01 08:32:00,
2013-03-01 02:42:00,32.0,30.0,-100.00,WNW,300,4.0,6.0,92,-99.99,,,-99.99,,2013-03-01 08:42:00,
2013-03-01 02:53:00,32.0,30.0,-100.00,NW,315,6.0,8.0,92,-99.99,,,-99.99,,2013-03-01 08:53:00,
2013-03-01 03:02:00,32.0,30.0,-100.00,NW,315,6.0,8.0,92,-99.99,,,-99.99,,2013-03-01 09:02:00,
2013-03-01 03:12:00,32.0,30.0,-100.00,WNW,290,6.0,6.0,93,-99.99,,,-99.99,,2013-03-01 09:12:00,
2013-03-01 03:22:00,32.0,30.0,-100.00,NW,310,6.0,6.0,93,-99.99,,,-99.99,,2013-03-01 09:22:00,
2013-03-01 03:32:00,32.0,30.0,-100.00,WNW,300,4.0,4.0,93,-99.99,,,-99.99,,2013-03-01 09:32:00,
2013-03-01 03:42:00,32.0,30.0,-100.00,WNW,300,4.0,4.0,93,-99.99,,,-99.99,,2013-03-01 09:42:00,
2013-03-01 03:52:00,32.0,30.0,-100.00,WNW,300,3.0,6.0,93,-99.99,,,-99.99,,2013-03-01 09:52:00,
2013-03-01 04:02:00,32.0,30.0,-100.00,WNW,300,3.0,6.0,93,-99.99,,,-99.99,,2013-03-01 10:02:00,
2013-03-01 04:11:00,32.0,30.0,-100.00,WNW,290,4.0,6.0,93,-99.99,,,-99.99,,2013-03-01 10:11:00,
2013-03-01 04:22:00,32.0,30.0,-100.00,West,280,3.0,4.0,93,-99.99,,,-99.99,,2013-03-01 10:22:00,
2013-03-01 04:32:00,32.0,30.0,-100.00,West,280,3.0,4.0,93,-99.99,,,-99.99,,2013-03-01 10:32:00,
2013-03-01 04:42:00,32.0,30.0,-100.00,West,280,4.0,6.0,93,-99.99,,,-99.99,,2013-03-01 10:42:00,
2013-03-01 04:53:00,32.0,30.0,-100.00,WNW,290,4.0,6.0,93,-99.99,,,-99.99,,2013-03-01 10:53:00,
2013-03-01 05:01:00,32.0,30.0,-100.00,WNW,290,4.0,6.0,93,-99.99,,,-99.99,,2013-03-01 11:01:00,
2013-03-01 05:11:00,32.0,30.0,-100.00,WNW,295,4.0,6.0,93,-99.99,,,-99.99,,2013-03-01 11:11:00,
2013-03-01 05:22:00,32.0,30.0,-100.00,WNW,285,6.0,9.0,93,-99.99,,,-99.99,,2013-03-01 11:22:00,
2013-03-01 05:32:00,32.0,30.0,-100.00,WNW,295,6.0,8.0,93,-99.99,,,-99.99,,2013-03-01 11:32:00,
2013-03-01 05:42:00,32.0,30.0,-100.00,WNW,295,6.0,8.0,93,-99.99,,,-99.99,,2013-03-01 11:42:00,
2013-03-01 05:52:00,32.0,30.0,-100.00,WNW,290,4.0,4.0,93,-99.99,,,-99.99,,2013-03-01 11:52:00,
2013-03-01 06:01:00,32.0,30.0,-100.00,WNW,290,4.0,4.0,93,-99.99,,,-99.99,,2013-03-01 12:01:00,
2013-03-01 06:11:00,32.0,30.0,-100.00,WNW,290,6.0,9.0,93,-99.99,,,-99.99,,2013-03-01 12:11:00,
2013-03-01 06:21:00,32.0,30.0,-100.00,NNW,330,6.0,9.0,93,-99.99,,,-99.99,,2013-03-01 12:21:00,
2013-03-01 06:32:00,32.0,30.0,-100.00,NNW,330,6.0,9.0,93,-99.99,,,-99.99,,2013-03-01 12:32:00,
2013-03-01 06:42:00,32.0,30.0,-100.00,WNW,290,3.0,4.0,93,-99.99,,,-99.99,,2013-03-01 12:42:00,
2013-03-01 06:52:00,32.0,30.0,-100.00,NW,320,3.0,9.0,93,-99.99,,,-99.99,,2013-03-01 12:52:00,
2013-03-01 07:01:00,32.0,30.0,-100.00,NW,320,3.0,9.0,93,-99.99,,,-99.99,,2013-03-01 13:01:00,
2013-03-01 07:11:00,32.0,30.0,-100.00,NW,305,3.0,4.0,93,-99.99,,,-99.99,,2013-03-01 13:11:00,
2013-03-01 07:22:00,32.0,30.0,-100.00,WNW,290,3.0,4.0,93,-99.99,,,-99.99,,2013-03-01 13:22:00,
2013-03-01 07:32:00,32.0,30.0,-100.00,NW,305,4.0,6.0,93,-99.99,,,-99.99,,2013-03-01 13:32:00,
2013-03-01 07:42:00,32.0,30.0,-100.00,NW,305,4.0,6.0,93,-99.99,,,-99.99,,2013-03-01 13:42:00,
2013-03-01 07:52:00,32.0,30.0,-100.00,WNW,290,6.0,8.0,93,-99.99,,,-99.99,,2013-03-01 13:52:00,
2013-03-01 08:01:00,32.0,30.0,-100.00,WNW,290,6.0,8.0,93,-99.99,,,-99.99,,2013-03-01 14:01:00,
2013-03-01 08:11:00,32.0,31.0,-100.00,WNW,300,8.0,9.0,93,-99.99,,,-99.99,,2013-03-01 14:11:00,
2013-03-01 08:21:00,32.0,31.0,-100.00,WNW,300,6.0,9.0,93,-99.99,,,-99.99,,2013-03-01 14:21:00,
2013-03-01 08:32:00,32.0,31.0,-100.00,WNW,300,6.0,9.0,93,-99.99,,,-99.99,,2013-03-01 14:32:00,
2013-03-01 08:42:00,32.0,31.0,-100.00,WNW,300,8.0,10.0,93,-99.99,,,-99.99,,2013-03-01 14:42:00,
2013-03-01 08:52:00,33.0,31.0,-100.00,WNW,290,6.0,11.0,93,-99.99,,,-99.99,,2013-03-01 14:52:00,
2013-03-01 09:02:00,33.0,31.0,-100.00,WNW,290,6.0,11.0,93,-99.99,,,-99.99,,2013-03-01 15:02:00,
2013-03-01 09:11:00,33.0,31.0,-100.00,WNW,290,6.0,11.0,93,-99.99,,,-99.99,,2013-03-01 15:11:00,
2013-03-01 09:21:00,33.0,31.0,-100.00,WNW,295,10.0,12.0,93,-99.99,,,-99.99,,2013-03-01 15:21:00,
2013-03-01 09:32:00,33.0,31.0,-100.00,WNW,295,10.0,12.0,93,-99.99,,,-99.99,,2013-03-01 15:32:00,
2013-03-01 09:42:00,33.0,31.0,-100.00,WNW,290,6.0,9.0,93,-99.99,,,-99.99,,2013-03-01 15:42:00,
2013-03-01 09:52:00,33.0,31.0,-100.00,WNW,285,6.0,8.0,92,-99.99,,,-99.99,,2013-03-01 15:52:00,
2013-03-01 10:01:00,33.0,31.0,-100.00,WNW,285,6.0,8.0,92,-99.99,,,-99.99,,2013-03-01 16:01:00,
2013-03-01 10:11:00,33.0,31.0,-100.00,West,280,4.0,6.0,91,-99.99,,,-99.99,,2013-03-01 16:11:00,
2013-03-01 10:21:00,33.0,31.0,-100.00,WNW,285,6.0,6.0,91,-99.99,,,-99.99,,2013-03-01 16:21:00,
2013-03-01 10:32:00,33.0,31.0,-100.00,WNW,285,6.0,6.0,91,-99.99,,,-99.99,,2013-03-01 16:32:00,
2013-03-01 10:42:00,33.0,30.0,-100.00,NW,305,4.0,9.0,90,-99.99,,,-99.99,,2013-03-01 16:42:00,
2013-03-01 10:52:00,33.0,30.0,-100.00,NW,315,6.0,10.0,89,-99.99,,,-99.99,,2013-03-01 16:52:00,
2013-03-01 11:01:00,33.0,30.0,-100.00,NW,315,6.0,10.0,89,-99.99,,,-99.99,,2013-03-01 17:01:00,
2013-03-01 11:11:00,33.0,30.0,-100.00,NNW,335,4.0,6.0,89,-99.99,,,-99.99,,2013-03-01 17:11:00,
2013-03-01 11:21:00,33.0,30.0,-100.00,WNW,290,8.0,9.0,89,-99.99,,,-99.99,,2013-03-01 17:21:00,
2013-03-01 11:32:00,33.0,30.0,-100.00,WNW,290,8.0,9.0,89,-99.99,,,-99.99,,2013-03-01 17:32:00,
2013-03-01 11:41:00,34.0,31.0,-100.00,WNW,300,4.0,8.0,89,-99.99,,,-99.99,,2013-03-01 17:41:00,
2013-03-01 11:52:00,34.0,31.0,-100.00,WNW,290,10.0,11.0,88,-99.99,,,-99.99,,2013-03-01 17:52:00,
2013-03-01 12:01:00,34.0,31.0,-100.00,WNW,290,10.0,11.0,88,-99.99,,,-99.99,,2013-03-01 18:01:00,
2013-03-01 12:12:00,34.0,30.0,-100.00,WNW,290,10.0,12.0,86,-99.99,,,-99.99,,2013-03-01 18:12:00,
2013-03-01 12:22:00,34.0,30.0,-100.00,NNW,345,4.0,9.0,86,-99.99,,,-99.99,,2013-03-01 18:22:00,
2013-03-01 12:32:00,34.0,30.0,-100.00,NNW,345,4.0,9.0,86,-99.99,,,-99.99,,2013-03-01 18:32:00,
2013-03-01 12:42:00,35.0,31.0,-100.00,WNW,300,4.0,8.0,85,-99.99,,,-99.99,,2013-03-01 18:42:00,
2013-03-01 12:52:00,35.0,31.0,-100.00,WNW,290,3.0,6.0,85,-99.99,,,-99.99,,2013-03-01 18:52:00,
2013-03-01 13:01:00,35.0,32.0,-100.00,NW,320,2.0,4.0,86,-99.99,,,-99.99,,2013-03-01 19:01:00,
2013-03-01 13:11:00,35.0,32.0,-100.00,NW,320,2.0,4.0,86,-99.99,,,-99.99,,2013-03-01 19:11:00,
2013-03-01 13:21:00,35.0,31.0,-100.00,West,280,6.0,10.0,86,-99.99,,,-99.99,,2013-03-01 19:21:00,
2013-03-01 13:32:00,35.0,31.0,-100.00,West,280,6.0,10.0,86,-99.99,,,-99.99,,2013-03-01 19:32:00,
2013-03-01 13:42:00,35.0,31.0,-100.00,NW,305,3.0,6.0,86,-99.99,,,-99.99,,2013-03-01 19:42:00,
2013-03-01 13:52:00,35.0,32.0,-100.00,WNW,290,9.0,12.0,86,-99.99,,,-99.99,,2013-03-01 19:52:00,
2013-03-01 14:01:00,35.0,32.0,-100.00,WNW,290,9.0,12.0,86,-99.99,,,-99.99,,2013-03-01 20:01:00,
2013-03-01 14:11:00,35.0,31.0,-100.00,WNW,300,12.0,14.0,86,-99.99,,,-99.99,,2013-03-01 20:11:00,
2013-03-01 14:21:00,35.0,31.0,-100.00,NW,325,8.0,10.0,86,-99.99,,,-99.99,,2013-03-01 20:21:00,
2013-03-01 14:32:00,35.0,31.0,-100.00,NW,325,8.0,10.0,86,-99.99,,,-99.99,,2013-03-01 20:32:00,
2013-03-01 14:42:00,35.0,31.0,-100.00,NW,305,6.0,10.0,86,-99.99,,,-99.99,,2013-03-01 20:42:00,
2013-03-01 14:52:00,35.0,31.0,-100.00,WNW,300,9.0,11.0,85,-99.99,,,-99.99,,2013-03-01 20:52:00,
2013-03-01 15:01:00,35.0,31.0,-100.00,WNW,295,11.0,12.0,85,-99.99,,,-99.99,,2013-03-01 21:01:00,
2013-03-01 15:11:00,35.0,31.0,-100.00,WNW,295,11.0,12.0,85,-99.99,,,-99.99,,2013-03-01 21:11:00,
2013-03-01 15:21:00,35.0,31.0,-100.00,West,280,9.0,11.0,85,-99.99,,,-99.99,,2013-03-01 21:21:00,
2013-03-01 15:32:00,35.0,31.0,-100.00,NW,310,6.0,10.0,87,-99.99,,,-99.99,,2013-03-01 21:32:00,
2013-03-01 15:42:00,35.0,31.0,-100.00,NW,310,6.0,10.0,87,-99.99,,,-99.99,,2013-03-01 21:42:00,
2013-03-01 15:52:00,35.0,31.0,-100.00,WNW,300,6.0,10.0,87,-99.99,,,-99.99,,2013-03-01 21:52:00,
2013-03-01 16:01:00,35.0,32.0,-100.00,WNW,295,6.0,9.0,87,-99.99,,,-99.99,,2013-03-01 22:01:00,
2013-03-01 16:11:00,35.0,32.0,-100.00,WNW,295,6.0,9.0,87,-99.99,,,-99.99,,2013-03-01 22:11:00,
2013-03-01 16:21:00,35.0,31.0,-100.00,WNW,290,9.0,10.0,87,-99.99,,,-99.99,,2013-03-01 22:21:00,
2013-03-01 16:32:00,35.0,31.0,-100.00,WNW,290,9.0,10.0,87,-99.99,,,-99.99,,2013-03-01 22:32:00,
2013-03-01 16:42:00,35.0,31.0,-100.00,WNW,295,12.0,16.0,87,-99.99,,,-99.99,,2013-03-01 22:42:00,
2013-03-01 16:52:00,35.0,31.0,-100.00,WNW,300,9.0,12.0,87,-99.99,,,-99.99,,2013-03-01 22:52:00,
2013-03-01 17:01:00,35.0,31.0,-100.00,WNW,300,10.0,12.0,87,-99.99,,,-99.99,,2013-03-01 23:01:00,
2013-03-01 17:11:00,35.0,31.0,-100.00,WNW,300,10.0,12.0,87,-99.99,,,-99.99,,2013-03-01 23:11:00,
2013-03-01 17:21:00,34.0,31.0,-100.00,WNW,300,10.0,14.0,87,-99.99,,,-99.99,,2013-03-01 23:21:00,
2013-03-01 17:31:00,34.0,31.0,-100.00,NNW,330,3.0,9.0,88,-99.99,,,-99.99,,2013-03-01 23:31:00,
2013-03-01 17:41:00,34.0,31.0,-100.00,NNW,330,3.0,9.0,88,-99.99,,,-99.99,,2013-03-01 23:41:00,
2013-03-01 17:52:00,33.0,31.0,-100.00,NW,305,3.0,6.0,90,-99.99,,,-99.99,,2013-03-01 23:52:00,
2013-03-01 18:02:00,33.0,31.0,-100.00,NW,305,3.0,6.0,90,-99.99,,,-99.99,,2013-03-02 00:02:00,
2013-03-01 18:12:00,33.0,30.0,-100.00,NW,305,6.0,9.0,90,-99.99,,,-99.99,,2013-03-02 00:12:00,
2013-03-01 18:22:00,33.0,30.0,-100.00,NW,315,9.0,10.0,90,-99.99,,,-99.99,,2013-03-02 00:22:00,
2013-03-01 18:32:00,33.0,30.0,-100.00,NW,315,9.0,10.0,90,-99.99,,,-99.99,,2013-03-02 00:32:00,
2013-03-01 18:42:00,33.0,30.0,-100.00,WNW,300,3.0,6.0,90,-99.99,,,-99.99,,2013-03-02 00:42:00,
2013-03-01 18:52:00,33.0,30.0,-100.00,North,0,3.0,6.0,90,-99.99,,,-99.99,,2013-03-02 00:52:00,
2013-03-01 19:01:00,33.0,30.0,-100.00,North,0,3.0,6.0,90,-99.99,,,-99.99,,2013-03-02 01:01:00,
2013-03-01 19:11:00,32.0,30.0,-100.00,NW,325,4.0,6.0,90,-99.99,,,-99.99,,2013-03-02 01:11:00,
2013-03-01 19:21:00,32.0,29.0,-100.00,North,0,6.0,14.0,89,-99.99,,,-99.99,,2013-03-02 01:21:00,
2013-03-01 19:31:00,32.0,29.0,-100.00,North,0,6.0,14.0,89,-99.99,,,-99.99,,2013-03-02 01:31:00,
2013-03-01 19:41:00,32.0,29.0,-100.00,NNW,335,6.0,9.0,89,-99.99,,,-99.99,,2013-03-02 01:41:00,
2013-03-01 19:52:00,32.0,29.0,-100.00,North,355,3.0,6.0,89,-99.99,,,-99.99,,2013-03-02 01:52:00,
2013-03-01 20:01:00,32.0,29.0,-100.00,North,355,3.0,6.0,89,-99.99,,,-99.99,,2013-03-02 02:01:00,
2013-03-01 20:11:00,32.0,29.0,-100.00,NW,325,6.0,9.0,89,-99.99,,,-99.99,,2013-03-02 02:11:00,
2013-03-01 20:22:00,32.0,29.0,-100.00,NNW,340,6.0,11.0,89,-99.99,,,-99.99,,2013-03-02 02:22:00,
2013-03-01 20:32:00,32.0,29.0,-100.00,NNW,340,6.0,11.0,89,-99.99,,,-99.99,,2013-03-02 02:32:00,
2013-03-01 20:42:00,31.0,28.0,-100.00,NW,315,6.0,10.0,89,-99.99,,,-99.99,,2013-03-02 02:42:00,
2013-03-01 20:52:00,31.0,28.0,-100.00,North,5,1.0,3.0,89,-99.99,,,-99.99,,2013-03-02 02:52:00,
2013-03-01 21:02:00,31.0,28.0,-100.00,North,5,1.0,3.0,89,-99.99,,,-99.99,,2013-03-02 03:02:00,
2013-03-01 21:11:00,31.0,28.0,-100.00,North,5,1.0,3.0,89,-99.99,,,-99.99,,2013-03-02 03:11:00,
2013-03-01 21:21:00,31.0,28.0,-100.00,NW,320,6.0,8.0,89,-99.99,,,-99.99,,2013-03-02 03:21:00,
2013-03-01 21:32:00,31.0,28.0,-100.00,NW,320,6.0,8.0,89,-99.99,,,-99.99,,2013-03-02 03:32:00,
2013-03-01 21:42:00,31.0,28.0,-100.00,NW,310,3.0,6.0,89,-99.99,,,-99.99,,2013-03-02 03:42:00,
2013-03-01 21:52:00,31.0,28.0,-100.00,North,350,6.0,9.0,89,-99.99,,,-99.99,,2013-03-02 03:52:00,
2013-03-01 22:01:00,31.0,28.0,-100.00,North,350,6.0,9.0,89,-99.99,,,-99.99,,2013-03-02 04:01:00,
2013-03-01 22:11:00,31.0,28.0,-100.00,North,0,4.0,10.0,89,-99.99,,,-99.99,,2013-03-02 04:11:00,
2013-03-01 22:21:00,31.0,28.0,-100.00,NW,320,6.0,12.0,89,-99.99,,,-99.99,,2013-03-02 04:21:00,
2013-03-01 22:32:00,31.0,28.0,-100.00,NW,320,6.0,12.0,89,-99.99,,,-99.99,,2013-03-02 04:32:00,
2013-03-01 22:42:00,31.0,28.0,-100.00,NW,310,6.0,9.0,89,-99.99,,,-99.99,,2013-03-02 04:42:00,
2013-03-01 22:52:00,31.0,27.0,-100.00,NNW,340,9.0,11.0,88,-99.99,,,-99.99,,2013-03-02 04:52:00,
2013-03-01 23:02:00,31.0,27.0,-100.00,NNW,340,9.0,11.0,88,-99.99,,,-99.99,,2013-03-02 05:02:00,
2013-03-01 23:12:00,31.0,28.0,-100.00,NW,305,3.0,6.0,88,-99.99,,,-99.99,,2013-03-02 05:12:00,
2013-03-01 23:22:00,31.0,27.0,-100.00,WNW,300,8.0,9.0,88,-99.99,,,-99.99,,2013-03-02 05:22:00,
2013-03-01 23:31:00,30.0,28.0,-100.00,WNW,295,6.0,10.0,89,-99.99,,,-99.99,,2013-03-02 05:31:00,
2013-03-01 23:32:00,31.0,27.0,-100.00,NW,310,4.0,6.0,88,-99.99,,,-99.99,,2013-03-02 05:32:00,
2013-03-01 23:42:00,31.0,27.0,-100.00,NW,310,4.0,6.0,88,-99.99,,,-99.99,,2013-03-02 05:42:00,
2013-03-01 23:52:00,30.0,28.0,-100.00,NW,315,4.0,6.0,89,-99.99,,,-99.99,,2013-03-02 05:52:00,